Time;durP1;ratioP1;P1;durP2;ratioP2;P2;SDS_P1;SDS_P2;PMS_P1;PMS_P2;Temp;Humidity;BMP_temperature;BMP_pressure;BME280_temperature;BME280_humidity;BME280_pressure;Samples;Min_cycle;Max_cycle;Signal;HPM_P1;HPM_P2
2022/11/04 00:01:33;;;;;;;25.80;11.90;;;;;;;13.27;55.54;100146.22;5118166;28;20027;-69
2022/11/04 00:03:59;;;;;;;24.40;11.60;;;;;;;13.01;56.78;100147.22;5117542;28;20039;-69
2022/11/04 00:06:25;;;;;;;27.73;11.35;;;;;;;12.86;56.28;100142.75;5121004;28;20027;-67
2022/11/04 00:08:55;;;;;;;24.45;11.88;;;;;;;12.73;58.54;100149.41;5122175;28;20027;-67
2022/11/04 00:14:16;;;;;;;28.33;12.43;;;;;;;12.79;59.58;100131.97;5083116;28;20032;-66
2022/11/04 00:19:26;;;;;;;30.60;12.98;;;;;;;12.93;59.20;100141.91;5121597;28;20065;-67
2022/11/04 00:30:09;;;;;;;26.80;12.65;;;;;;;12.92;58.70;100148.22;5090066;28;20059;-69
2022/11/04 00:35:19;;;;;;;29.27;14.30;;;;;;;12.86;60.96;100140.94;5121418;28;20026;-69
2022/11/04 00:37:45;;;;;;;31.10;14.13;;;;;;;12.73;61.41;100114.84;5101709;28;20103;-69
2022/11/04 00:40:13;;;;;;;31.30;14.60;;;;;;;12.92;61.59;100140.25;5118175;28;20197;-69
2022/11/04 00:42:38;;;;;;;30.45;15.20;;;;;;;12.95;61.24;100139.09;5122782;28;20317;-69
2022/11/04 00:45:05;;;;;;;32.90;14.52;;;;;;;13.06;61.42;100136.91;5120597;28;20039;-69
2022/11/04 00:47:30;;;;;;;30.77;15.23;;;;;;;13.05;61.59;100137.91;5120396;28;20039;-68
2022/11/04 00:49:56;;;;;;;33.03;14.95;;;;;;;13.15;61.76;100142.22;5119879;28;20322;-69
2022/11/04 00:52:22;;;;;;;31.48;14.63;;;;;;;13.19;60.71;100148.91;5117929;28;20028;-69
2022/11/04 00:54:47;;;;;;;28.48;14.05;;;;;;;13.26;60.27;100149.88;5121015;28;20015;-69
2022/11/04 00:57:13;;;;;;;37.15;15.73;;;;;;;13.21;60.86;100146.91;5121143;28;20032;-68
2022/11/04 00:59:39;;;;;;;37.28;14.48;;;;;;;13.29;60.15;100150.38;5119537;28;20073;-68
2022/11/04 01:02:06;;;;;;;30.85;14.77;;;;;;;13.09;60.50;100155.19;5117581;28;20090;-69
2022/11/04 01:04:31;;;;;;;36.42;16.35;;;;;;;12.91;61.05;100146.56;5121037;28;20027;-69
2022/11/04 01:06:57;;;;;;;34.20;15.18;;;;;;;12.87;60.71;100139.09;5119942;28;20043;-69
2022/11/04 01:09:23;;;;;;;31.23;15.57;;;;;;;12.89;60.90;100140.59;5119546;27;20038;-69
2022/11/04 01:11:48;;;;;;;34.88;14.82;;;;;;;12.91;60.74;100127.97;5120683;28;20035;-69
2022/11/04 01:14:14;;;;;;;33.35;14.45;;;;;;;12.99;59.38;100137.75;5122492;28;20031;-68
2022/11/04 01:16:39;;;;;;;33.10;14.07;;;;;;;12.87;57.58;100131.97;5121806;28;20043;-66
2022/11/04 01:19:05;;;;;;;33.22;14.18;;;;;;;12.65;57.55;100119.34;5122974;28;20035;-67
2022/11/04 01:21:31;;;;;;;29.63;13.85;;;;;;;12.59;59.54;100134.13;5121817;28;20325;-67
2022/11/04 01:23:56;;;;;;;33.90;15.05;;;;;;;12.68;60.18;100141.09;5122793;28;20531;-67
2022/11/04 01:26:23;;;;;;;34.33;14.63;;;;;;;12.65;59.99;100127.31;5122461;28;20237;-67
2022/11/04 01:28:51;;;;;;;34.58;14.40;;;;;;;12.47;60.37;100138.91;5119857;28;20015;-68
2022/11/04 01:31:23;;;;;;;32.05;13.93;;;;;;;12.56;60.99;100133.63;5120005;28;20378;-69
2022/11/04 01:33:49;;;;;;;38.15;15.02;;;;;;;12.46;59.26;100137.22;5119628;28;20313;-69
2022/11/04 01:36:15;;;;;;;33.47;13.70;;;;;;;12.37;58.43;100135.56;5119550;28;20035;-67
2022/11/04 01:38:41;;;;;;;29.52;13.75;;;;;;;12.36;60.10;100133.06;5120490;28;20047;-67
2022/11/04 01:41:08;;;;;;;26.23;13.10;;;;;;;12.46;59.69;100134.59;5119835;28;20352;-67
2022/11/04 01:44:03;;;;;;;26.58;12.93;;;;;;;12.42;57.68;100140.38;5119864;28;20340;-67
2022/11/04 01:46:28;;;;;;;;;;;;;;;12.39;59.44;100136.22;5120333;28;20032;-67
2022/11/04 01:49:17;;;;;;;22.92;12.95;;;;;;;12.21;61.05;100135.53;5119231;28;19926;-67
2022/11/04 01:51:46;;;;;;;29.05;13.30;;;;;;;12.25;60.88;100126.25;5118799;28;20062;-67
2022/11/04 01:54:12;;;;;;;30.52;13.75;;;;;;;12.17;59.02;100128.91;5121444;28;20039;-67
2022/11/04 01:56:40;;;;;;;31.98;13.43;;;;;;;12.05;60.58;100127.53;5122090;28;20094;-67
2022/11/04 01:59:10;;;;;;;31.20;12.93;;;;;;;12.13;59.86;100131.03;5119814;28;20038;-66
2022/11/04 02:01:35;;;;;;;25.25;12.90;;;;;;;12.14;59.76;100126.56;5119436;28;20031;-67
2022/11/04 02:06:51;;;;;;;26.15;12.02;;;;;;;12.03;61.79;100121.56;5117461;28;20049;-67
2022/11/04 02:09:17;;;;;;;27.27;12.60;;;;;;;12.04;61.86;100116.09;5097261;28;20047;-67
2022/11/04 02:14:27;;;;;;;;;;;;;;;12.27;60.87;100107.50;5117471;28;20057;-69
2022/11/04 02:17:01;;;;;;;26.90;11.25;;;;;;;12.12;58.53;100104.66;5119646;28;19990;-69
2022/11/04 02:19:57;;;;;;;23.45;11.77;;;;;;;12.14;58.96;100108.81;5119296;28;20188;-69
2022/11/04 02:22:41;;;;;;;26.13;11.63;;;;;;;12.25;59.64;100104.19;5132323;27;20320;-67
2022/11/04 02:25:22;;;;;;;27.02;11.65;;;;;;;12.12;58.95;100107.31;5116058;28;20238;-67
2022/11/04 02:27:59;;;;;;;26.58;11.45;;;;;;;12.13;59.82;100096.53;5114880;28;20034;-67
2022/11/04 02:30:32;;;;;;;28.35;11.90;;;;;;;11.99;57.85;100099.81;5118806;28;20035;-67
2022/11/04 02:33:03;;;;;;;27.08;11.70;;;;;;;11.79;60.38;100093.97;5120545;28;20032;-67
2022/11/04 02:36:00;;;;;;;32.00;12.85;;;;;;;11.79;58.12;100099.28;5119380;28;20048;-67
2022/11/04 02:38:32;;;;;;;27.35;11.80;;;;;;;11.71;60.69;100090.44;5096655;28;20073;-67
2022/11/04 02:41:16;;;;;;;24.00;11.73;;;;;;;11.80;60.84;100094.78;5119520;28;20086;-67
2022/11/04 02:44:16;;;;;;;30.55;12.23;;;;;;;11.80;60.84;100097.44;5118482;28;20031;-67
2022/11/04 02:47:12;;;;;;;29.92;13.32;;;;;;;11.77;61.34;100095.94;5116409;28;20209;-67
2022/11/04 02:49:39;;;;;;;24.90;12.45;;;;;;;11.74;62.42;100098.06;5117538;28;20387;-67
2022/11/04 02:52:11;;;;;;;29.52;11.55;;;;;;;11.92;62.74;100088.19;5117912;28;20344;-67
2022/11/04 02:54:46;;;;;;;28.15;11.77;;;;;;;11.66;63.56;100053.78;5118581;28;20381;-67
2022/11/04 02:57:18;;;;;;;36.35;13.70;;;;;;;11.91;63.08;100089.19;5119534;28;20333;-67
2022/11/04 02:59:55;;;;;;;24.08;11.85;;;;;;;11.94;63.02;100088.03;5118411;28;20016;-67
2022/11/04 03:02:55;;;;;;;34.63;12.95;;;;;;;11.53;64.35;100085.22;5117776;28;20042;-69
2022/11/04 03:05:32;;;;;;;24.95;12.65;;;;;;;11.61;65.02;100090.56;5091109;28;20088;-68
2022/11/04 03:08:05;;;;;;;22.90;12.10;;;;;;;11.65;64.09;100080.47;5118886;28;20263;-69
2022/11/04 03:10:42;;;;;;;28.98;12.38;;;;;;;11.82;64.06;100071.59;5118485;28;20031;-69
2022/11/04 03:13:15;;;;;;;25.35;12.52;;;;;;;11.69;64.03;100081.81;5099338;28;20116;-69
2022/11/04 03:15:51;;;;;;;29.95;12.85;;;;;;;11.53;64.98;100079.91;5117977;28;20020;-69
2022/11/04 03:18:51;;;;;;;39.75;16.80;;;;;;;11.62;64.45;100080.78;5115698;28;20038;-69
2022/11/04 03:21:20;;;;;;;65.18;31.08;;;;;;;11.93;64.27;100076.59;5069179;28;20039;-69
2022/11/04 03:23:46;;;;;;;91.35;39.38;;;;;;;11.98;63.33;100084.06;5098943;28;20131;-67
2022/11/04 03:26:21;;;;;;;72.55;30.90;;;;;;;12.06;63.45;100089.38;5117640;28;20035;-69
2022/11/04 03:29:02;;;;;;;40.67;13.98;;;;;;;12.15;62.62;100086.59;5118824;28;20027;-69
2022/11/04 03:31:38;;;;;;;27.88;11.23;;;;;;;12.14;63.32;100089.41;5119296;28;20035;-69
2022/11/04 03:34:03;;;;;;;23.20;11.85;;;;;;;11.92;63.15;100074.94;5118298;28;20051;-67
2022/11/04 03:36:29;;;;;;;27.88;11.48;;;;;;;11.96;63.55;100088.69;5099360;28;20020;-67
2022/11/04 03:38:54;;;;;;;27.00;12.32;;;;;;;12.04;62.82;100089.56;5118753;28;20076;-67
2022/11/04 03:41:56;;;;;;;27.27;11.75;;;;;;;11.92;62.86;100090.84;5121783;27;20221;-67
2022/11/04 03:44:23;;;;;;;24.98;12.68;;;;;;;11.71;63.96;100098.38;5108090;28;20043;-67
2022/11/04 03:46:51;;;;;;;26.55;12.93;;;;;;;11.85;63.68;100104.94;5121439;28;20053;-67
2022/11/04 03:49:18;;;;;;;29.45;14.25;;;;;;;11.83;63.69;100095.31;5122116;28;20057;-67
2022/11/04 03:51:43;;;;;;;49.17;13.90;;;;;;;11.59;64.31;100097.84;5121768;28;20051;-69
2022/11/04 03:54:09;;;;;;;32.10;13.60;;;;;;;11.63;63.92;100096.53;5121506;28;20028;-68
2022/11/04 03:56:59;;;;;;;35.45;13.07;;;;;;;11.56;65.21;100098.16;5103749;28;20339;-68
2022/11/04 03:59:31;;;;;;;27.30;13.52;;;;;;;11.66;64.49;100090.09;5122041;28;20036;-69
2022/11/04 04:02:16;;;;;;;31.17;14.68;;;;;;;11.70;64.68;100073.69;5122178;28;20020;-69
2022/11/04 04:04:56;;;;;;;32.13;12.52;;;;;;;11.76;64.62;100080.16;5121824;28;20315;-67
2022/11/04 04:07:41;;;;;;;34.03;13.70;;;;;;;11.58;65.17;100076.78;5122010;28;20081;-67
2022/11/04 04:13:18;;;;;;;29.67;12.43;;;;;;;11.40;65.33;100058.28;5118519;28;20077;-67
2022/11/04 04:15:52;;;;;;;23.10;11.80;;;;;;;11.70;64.83;100086.13;5118545;28;20178;-67
2022/11/04 04:18:26;;;;;;;30.00;13.68;;;;;;;11.70;65.07;100092.25;5121604;28;20031;-67
2022/11/04 04:20:53;;;;;;;;;;;;;;;11.89;64.88;100083.22;5104104;28;20015;-67
2022/11/04 04:28:57;;;;;;;31.08;12.43;;;;;;;11.89;64.12;100085.03;5119212;28;20073;-67
2022/11/04 04:34:09;;;;;;;24.65;11.80;;;;;;;11.97;64.27;100080.56;5121605;28;20080;-67
2022/11/04 04:36:44;;;;;;;28.20;12.55;;;;;;;12.08;63.93;100079.44;5120695;28;20031;-67
2022/11/04 04:47:38;;;;;;;34.65;12.48;;;;;;;12.24;63.60;100084.75;5122031;28;20033;-69
2022/11/04 04:50:05;;;;;;;27.77;12.75;;;;;;;12.25;64.41;100085.59;5120120;28;20360;-69
2022/11/04 04:52:35;;;;;;;36.00;14.48;;;;;;;12.26;64.25;100093.41;5119664;28;20039;-68
2022/11/04 04:55:01;;;;;;;29.58;13.40;;;;;;;12.27;64.20;100081.78;5116101;28;20358;-69
2022/11/04 04:57:26;;;;;;;32.17;13.95;;;;;;;12.29;64.90;100082.44;5121709;28;20031;-68
2022/11/04 04:59:51;;;;;;;33.90;14.13;;;;;;;12.47;64.68;100085.78;5119795;28;20365;-69
2022/11/04 05:02:17;;;;;;;39.70;16.27;;;;;;;12.43;64.34;100086.28;5121023;28;20364;-69
2022/11/04 05:04:42;;;;;;;43.42;18.20;;;;;;;12.45;64.28;100086.94;5119628;28;20321;-69
2022/11/04 05:07:08;;;;;;;29.48;16.80;;;;;;;12.58;64.34;100086.47;5120830;28;20037;-69
2022/11/04 05:09:34;;;;;;;40.30;16.20;;;;;;;12.64;63.80;100089.28;5119748;28;20318;-69
2022/11/04 05:12:00;;;;;;;38.80;15.85;;;;;;;12.50;63.89;100089.13;5119796;27;20028;-69
2022/11/04 05:14:25;;;;;;;38.80;15.77;;;;;;;12.50;64.29;100089.13;5120860;28;20031;-69
2022/11/04 05:16:50;;;;;;;36.05;15.63;;;;;;;12.58;63.40;100089.97;5119727;28;20019;-69
2022/11/04 05:19:16;;;;;;;39.17;15.98;;;;;;;12.67;62.95;100093.44;5101928;28;20119;-69
2022/11/04 05:21:41;;;;;;;36.40;15.13;;;;;;;12.53;64.00;100094.09;5119490;28;20031;-69
2022/11/04 05:24:07;;;;;;;45.20;16.52;;;;;;;12.66;63.82;100103.25;5120006;28;20027;-69
2022/11/04 05:26:32;;;;;;;48.22;16.27;;;;;;;12.70;62.78;100099.25;5120054;28;20043;-69
2022/11/04 05:28:58;;;;;;;51.40;18.25;;;;;;;12.73;63.47;100100.75;5119545;28;20082;-69
2022/11/04 05:31:23;;;;;;;41.42;17.15;;;;;;;12.71;63.79;100100.06;5120091;28;20031;-68
2022/11/04 05:33:49;;;;;;;33.15;15.50;;;;;;;12.52;63.68;100095.09;5120881;28;20031;-69
2022/11/04 05:36:16;;;;;;;36.75;18.35;;;;;;;12.77;62.55;100102.06;5119804;28;20036;-69
2022/11/04 05:38:42;;;;;;;42.83;17.52;;;;;;;12.79;63.33;100108.03;5119878;28;20107;-69
2022/11/04 05:41:10;;;;;;;29.58;13.85;;;;;;;12.77;62.90;100083.47;5120595;28;20329;-69
2022/11/04 05:43:36;;;;;;;32.28;15.38;;;;;;;12.87;62.91;100112.53;5123401;28;20019;-69
2022/11/04 05:46:01;;;;;;;35.80;16.50;;;;;;;12.85;63.49;100104.72;5123348;28;20061;-69
2022/11/04 05:48:27;;;;;;;40.28;18.17;;;;;;;12.90;63.03;100120.16;5123541;27;20043;-69
2022/11/04 05:50:54;;;;;;;36.88;17.48;;;;;;;12.95;62.98;100123.97;5123400;28;20101;-69
2022/11/04 05:53:19;;;;;;;43.15;16.35;;;;;;;13.04;63.29;100127.44;5123644;28;20044;-69
2022/11/04 05:55:45;;;;;;;49.67;17.58;;;;;;;13.08;62.55;100132.25;5121442;28;20023;-69
2022/11/04 05:58:10;;;;;;;41.13;16.60;;;;;;;13.10;62.82;100135.59;5120079;28;20035;-69
2022/11/04 06:00:36;;;;;;;48.03;17.38;;;;;;;13.03;62.90;100134.59;5119412;28;20083;-69
2022/11/04 06:03:01;;;;;;;48.45;15.82;;;;;;;12.65;64.06;100090.13;5116896;28;20035;-69
2022/11/04 06:05:27;;;;;;;40.58;15.48;;;;;;;12.86;64.05;100121.50;5119340;28;20027;-69
2022/11/04 06:07:54;;;;;;;40.65;14.32;;;;;;;12.61;65.07;100141.94;5101019;28;20036;-69
2022/11/04 06:10:20;;;;;;;41.78;15.68;;;;;;;12.83;64.73;100133.28;5134549;27;20213;-69
2022/11/04 06:12:45;;;;;;;34.03;15.20;;;;;;;12.99;63.65;100149.22;5118567;28;20024;-69
2022/11/04 06:15:11;;;;;;;38.75;14.95;;;;;;;13.09;63.52;100155.19;5119157;28;20026;-69
2022/11/04 06:17:36;;;;;;;33.80;14.57;;;;;;;13.12;63.75;100154.03;5118964;28;20027;-69
2022/11/04 06:20:04;;;;;;;38.45;14.52;;;;;;;12.96;64.11;100152.22;5119666;28;20043;-69
2022/11/04 06:22:29;;;;;;;28.73;14.82;;;;;;;12.85;64.28;100099.41;5101320;28;20027;-69
2022/11/04 06:24:55;;;;;;;36.40;14.50;;;;;;;13.30;63.75;100159.19;5119894;28;20216;-69
2022/11/04 06:27:20;;;;;;;29.10;12.40;;;;;;;13.29;63.52;100139.72;5101662;28;20031;-69
2022/11/04 06:29:46;;;;;;;36.47;16.60;;;;;;;13.16;64.28;100154.50;5119823;28;20030;-69
2022/11/04 06:32:14;;;;;;;35.15;13.70;;;;;;;13.08;64.53;100160.69;5118263;28;20039;-69
2022/11/04 06:34:40;;;;;;;36.58;13.63;;;;;;;13.16;64.83;100157.19;5118695;28;20241;-69
2022/11/04 06:37:06;;;;;;;31.63;14.30;;;;;;;13.27;64.14;100155.03;5119122;28;20035;-69
2022/11/04 06:39:31;;;;;;;34.33;14.55;;;;;;;13.27;64.14;100155.03;5117757;27;20072;-69
2022/11/04 06:41:57;;;;;;;30.17;14.30;;;;;;;13.32;64.52;100159.84;5119264;28;20333;-69
2022/11/04 06:44:23;;;;;;;36.42;14.25;;;;;;;13.38;63.78;100165.31;5117934;28;20376;-69
2022/11/04 06:46:48;;;;;;;53.05;21.00;;;;;;;13.50;63.83;100162.28;5118227;28;20034;-69
2022/11/04 06:49:19;;;;;;;58.22;19.83;;;;;;;13.66;63.36;100159.59;5118588;28;20043;-69
2022/11/04 06:51:44;;;;;;;40.30;16.55;;;;;;;13.55;63.24;100160.81;5118277;28;20107;-69
2022/11/04 06:54:10;;;;;;;40.45;17.92;;;;;;;13.33;63.72;100154.34;5119808;28;20035;-69
2022/11/04 06:56:36;;;;;;;37.00;17.80;;;;;;;13.49;64.39;100158.78;5100497;28;20043;-69
2022/11/04 06:59:01;;;;;;;43.08;18.75;;;;;;;13.57;63.74;100156.13;5118898;28;20052;-69
2022/11/04 07:01:29;;;;;;;42.58;19.33;;;;;;;13.71;63.65;100152.75;5118464;28;20079;-69
2022/11/04 07:03:57;;;;;;;51.90;21.40;;;;;;;13.80;63.24;100164.22;5117818;28;20363;-69
2022/11/04 07:06:24;;;;;;;43.78;19.27;;;;;;;13.89;63.22;100170.31;5100623;28;20221;-69
2022/11/04 07:08:51;;;;;;;53.67;19.95;;;;;;;13.98;62.79;100162.13;5117581;28;20600;-69
2022/11/04 07:11:19;;;;;;;46.45;20.15;;;;;;;14.04;62.70;100160.59;5117811;28;20225;-69
2022/11/04 07:13:45;;;;;;;42.00;20.02;;;;;;;14.01;62.69;100164.44;5120404;28;20031;-69
2022/11/04 07:16:10;;;;;;;56.03;20.67;;;;;;;13.55;64.14;100152.81;5121675;28;20210;-69
2022/11/04 07:18:36;;;;;;;43.60;18.13;;;;;;;13.67;63.78;100151.44;5123328;28;20329;-70
2022/11/04 07:21:02;;;;;;;59.78;21.30;;;;;;;13.98;62.76;100142.66;5104451;28;20380;-69
2022/11/04 07:23:28;;;;;;;50.65;21.42;;;;;;;14.25;61.62;100157.31;5121895;28;20098;-69
2022/11/04 07:26:02;;;;;;;51.47;22.05;;;;;;;14.35;61.67;100147.28;5123134;28;20302;-69
2022/11/04 07:28:27;;;;;;;46.92;20.70;;;;;;;14.52;61.03;100145.34;5121369;27;20091;-69
2022/11/04 07:30:57;;;;;;;45.42;21.60;;;;;;;14.65;60.40;100140.28;5121783;28;20047;-69
2022/11/04 07:33:24;;;;;;;45.60;20.17;;;;;;;14.71;60.04;100144.06;5119615;28;20042;-69
2022/11/04 07:36:41;;;;;;;51.08;21.77;;;;;;;14.83;60.35;100132.81;5291596;22;20097;-69
2022/11/04 07:39:06;;;;;;;58.38;21.67;;;;;;;14.93;59.98;100128.06;5085647;28;20355;-69
2022/11/04 07:41:32;;;;;;;46.25;22.50;;;;;;;15.01;59.37;100125.31;5080327;28;20025;-69
2022/11/04 07:43:59;;;;;;;50.80;22.73;;;;;;;14.99;59.32;100122.00;5065080;28;20045;-68
2022/11/04 07:46:25;;;;;;;43.60;21.77;;;;;;;15.08;59.51;100119.25;5064645;28;20033;-69
2022/11/04 07:48:51;;;;;;;48.50;22.10;;;;;;;15.13;59.25;100117.69;5062475;28;20075;-69
2022/11/04 07:51:19;;;;;;;50.70;22.27;;;;;;;15.20;58.54;100115.94;5063549;28;20241;-69
2022/11/04 07:53:45;;;;;;;51.35;22.63;;;;;;;15.23;58.50;100118.25;5064301;28;20268;-68
2022/11/04 07:56:12;;;;;;;42.13;21.35;;;;;;;15.28;58.52;100113.19;5063439;28;20024;-68
2022/11/04 07:58:38;;;;;;;46.15;21.90;;;;;;;15.30;58.45;100107.69;5061704;28;20033;-69
2022/11/04 08:01:07;;;;;;;45.17;21.35;;;;;;;15.33;58.07;100107.31;5063919;28;20036;-69
2022/11/04 08:03:34;;;;;;;53.50;22.13;;;;;;;15.28;58.43;100099.84;5063114;28;20065;-69
2022/11/04 08:06:02;;;;;;;52.63;22.98;;;;;;;15.33;58.28;100097.47;5062482;28;20328;-69
2022/11/04 08:08:28;;;;;;;39.88;21.17;;;;;;;15.40;58.34;100086.06;5062623;28;20337;-69
2022/11/04 08:10:56;;;;;;;40.85;21.30;;;;;;;15.39;59.23;100092.41;5061625;28;20032;-69
2022/11/04 08:13:22;;;;;;;43.45;20.98;;;;;;;15.53;58.84;100086.22;5063574;28;20041;-69
2022/11/04 08:15:47;;;;;;;46.20;22.23;;;;;;;15.57;58.22;100088.38;5062827;28;20021;-69
2022/11/04 08:18:13;;;;;;;43.33;20.33;;;;;;;15.27;58.38;100076.03;5063103;28;20055;-69
2022/11/04 08:20:38;;;;;;;40.67;20.70;;;;;;;15.20;59.19;100077.78;5062939;28;20036;-69
2022/11/04 08:23:04;;;;;;;40.22;21.23;;;;;;;15.48;58.14;100084.13;5061821;28;20051;-69
2022/11/04 08:25:29;;;;;;;47.70;19.90;;;;;;;15.44;59.19;100074.81;5062976;28;20024;-69
2022/11/04 08:27:55;;;;;;;44.47;19.40;;;;;;;15.47;59.03;100071.78;5062208;28;20036;-69
2022/11/04 08:30:20;;;;;;;44.95;20.98;;;;;;;15.56;58.52;100076.00;5061916;28;20245;-69
2022/11/04 08:32:45;;;;;;;36.38;19.48;;;;;;;15.52;58.90;100069.38;5078070;28;20152;-69
2022/11/04 08:35:11;;;;;;;38.38;18.88;;;;;;;15.62;58.76;100074.50;5062231;28;20100;-69
2022/11/04 08:37:37;;;;;;;37.58;19.48;;;;;;;15.51;58.67;100066.91;5070603;28;20334;-68
2022/11/04 08:40:04;;;;;;;45.78;19.80;;;;;;;15.39;58.85;100053.19;5062039;28;20024;-69
2022/11/04 08:42:29;;;;;;;39.70;20.80;;;;;;;15.44;58.88;100055.31;5080824;28;20205;-69
2022/11/04 08:44:55;;;;;;;44.35;19.40;;;;;;;15.50;58.77;100059.91;5062184;28;20355;-69
2022/11/04 08:47:20;;;;;;;37.70;20.20;;;;;;;15.43;59.59;100053.66;5082088;28;20032;-69
2022/11/04 08:49:46;;;;;;;40.30;19.10;;;;;;;15.29;60.11;100056.16;5080269;28;20372;-68
2022/11/04 08:52:11;;;;;;;44.92;20.13;;;;;;;15.21;60.24;100044.75;5082323;28;20341;-69
2022/11/04 08:54:37;;;;;;;42.05;20.77;;;;;;;15.08;60.96;100040.06;5080973;28;20052;-69
2022/11/04 08:57:02;;;;;;;40.00;21.17;;;;;;;15.26;60.52;100043.19;5080636;28;20314;-69
2022/11/04 08:59:28;;;;;;;42.55;21.08;;;;;;;15.46;59.85;100037.28;5081549;28;20048;-69
2022/11/04 09:01:53;;;;;;;39.55;18.92;;;;;;;15.64;59.28;100035.09;5082629;28;20261;-69
2022/11/04 09:04:19;;;;;;;48.17;19.75;;;;;;;15.51;59.51;100038.38;5082595;28;20024;-69
2022/11/04 09:06:45;;;;;;;43.28;20.80;;;;;;;15.22;61.04;100030.41;5082191;28;20115;-68
2022/11/04 09:09:14;;;;;;;38.50;20.27;;;;;;;15.36;61.08;100020.72;5073532;28;20036;-69
2022/11/04 09:11:42;;;;;;;34.67;18.60;;;;;;;15.26;61.90;100013.00;5084373;28;20054;-69
2022/11/04 09:14:09;;;;;;;37.30;19.52;;;;;;;15.20;62.57;100019.09;5091932;28;20040;-69
2022/11/04 09:16:36;;;;;;;37.42;20.88;;;;;;;15.33;62.23;100009.41;5083450;28;20020;-69
2022/11/04 09:19:02;;;;;;;40.05;19.58;;;;;;;15.44;61.99;100009.94;5082415;28;20044;-69
2022/11/04 09:21:27;;;;;;;45.00;20.17;;;;;;;15.69;62.94;99999.84;5081121;28;20039;-69
2022/11/04 09:23:53;;;;;;;36.33;18.48;;;;;;;15.65;63.46;100002.03;5082798;28;20078;-69
2022/11/04 09:26:21;;;;;;;39.22;18.38;;;;;;;15.68;63.54;100000.84;5081555;28;20028;-69
2022/11/04 09:28:47;;;;;;;39.22;19.13;;;;;;;15.72;62.75;99991.44;5078933;28;20336;-69
2022/11/04 09:31:15;;;;;;;36.97;18.70;;;;;;;15.49;65.05;99989.69;5081103;28;20133;-69
2022/11/04 09:33:42;;;;;;;36.92;18.40;;;;;;;15.33;64.40;99956.06;5081585;28;20033;-68
2022/11/04 09:36:09;;;;;;;38.42;19.13;;;;;;;15.55;64.48;99983.59;5081785;28;20071;-69
2022/11/04 09:38:38;;;;;;;40.97;19.17;;;;;;;15.49;67.01;99976.34;5081297;28;20048;-69
2022/11/04 09:41:09;;;;;;;45.70;21.48;;;;;;;15.13;68.30;99983.50;5080254;28;20361;-69
2022/11/04 09:43:52;;;;;;;44.58;18.67;;;;;;;15.31;69.62;99975.94;5081239;28;20017;-69
2022/11/04 09:46:19;;;;;;;45.58;21.70;;;;;;;15.34;69.28;99975.56;5081831;28;20036;-69
2022/11/04 09:48:49;;;;;;;48.05;22.40;;;;;;;15.06;69.59;99966.59;5081417;28;20038;-68
2022/11/04 09:51:18;;;;;;;44.65;21.35;;;;;;;14.78;71.89;99975.25;5079709;28;20100;-69
2022/11/04 09:53:59;;;;;;;48.47;24.40;;;;;;;14.82;71.66;99959.72;5082246;28;20344;-69
2022/11/04 09:56:32;;;;;;;47.35;22.83;;;;;;;15.17;70.64;99958.94;5082380;28;20217;-68
2022/11/04 09:58:57;;;;;;;49.70;23.63;;;;;;;15.47;69.45;99957.03;5080386;28;20092;-69
2022/11/04 10:01:54;;;;;;;58.47;26.73;;;;;;;15.61;68.99;99942.88;5062674;28;20071;-69
2022/11/04 10:04:48;;;;;;;49.53;24.77;;;;;;;15.90;67.90;99931.25;5079672;28;20033;-69
2022/11/04 10:07:40;;;;;;;51.50;24.52;;;;;;;16.13;66.59;99923.00;5066536;28;20063;-69
2022/11/04 10:10:25;;;;;;;58.08;25.08;;;;;;;15.77;67.59;99915.09;5081248;28;20096;-69
2022/11/04 10:13:00;;;;;;;51.90;25.58;;;;;;;15.47;69.13;99914.34;5083729;28;20024;-69
2022/11/04 10:15:28;;;;;;;48.47;23.05;;;;;;;15.49;69.08;99916.81;5081337;28;20043;-69
2022/11/04 10:18:28;;;;;;;51.97;25.45;;;;;;;15.38;69.73;99914.66;5080369;28;20032;-69
2022/11/04 10:20:56;;;;;;;51.40;24.48;;;;;;;15.36;69.87;99901.50;5081207;28;20036;-69
2022/11/04 10:23:37;;;;;;;51.78;24.45;;;;;;;15.67;69.34;99903.91;5060797;28;20043;-69
2022/11/04 10:26:17;;;;;;;50.75;23.75;;;;;;;15.67;68.98;99889.75;5077562;28;20063;-69
2022/11/04 10:28:48;;;;;;;88.53;25.35;;;;;;;15.84;68.40;99891.97;5043543;28;20149;-69
2022/11/04 10:31:16;;;;;;;46.28;23.63;;;;;;;16.03;67.50;99878.97;5083705;28;20059;-69
2022/11/04 10:33:56;;;;;;;50.95;26.13;;;;;;;15.69;68.51;99877.84;5080150;28;20237;-69
2022/11/04 10:36:23;;;;;;;54.65;26.00;;;;;;;15.71;68.45;99875.81;5080127;28;20033;-69
2022/11/04 10:38:54;;;;;;;54.58;25.92;;;;;;;15.89;67.84;99868.16;5079101;28;20051;-69
2022/11/04 10:41:22;;;;;;;45.30;23.02;;;;;;;16.08;66.97;99864.00;5079651;28;20024;-69
2022/11/04 10:43:49;;;;;;;53.72;24.98;;;;;;;15.78;67.96;99863.34;5080617;28;20062;-69
2022/11/04 10:46:36;;;;;;;55.60;27.00;;;;;;;15.83;67.80;99852.09;5079985;28;20274;-69
2022/11/04 10:49:20;;;;;;;48.63;24.38;;;;;;;15.73;68.23;99843.59;5059562;28;20543;-70
2022/11/04 10:51:46;;;;;;;50.80;24.13;;;;;;;15.75;68.47;99841.56;5079392;28;20048;-69
2022/11/04 10:54:11;;;;;;;58.22;24.75;;;;;;;15.52;69.02;99831.03;5081081;28;20051;-69
2022/11/04 10:56:41;;;;;;;55.85;25.65;;;;;;;15.77;68.42;99832.34;5080150;28;20029;-69
2022/11/04 10:59:23;;;;;;;50.35;25.10;;;;;;;15.83;68.02;99836.91;5079246;28;20341;-68
2022/11/04 11:01:51;;;;;;;47.92;21.88;;;;;;;15.79;68.57;99824.97;5063127;28;20329;-69
2022/11/04 11:04:31;;;;;;;43.63;21.27;;;;;;;15.62;69.17;99828.94;5079719;28;20033;-69
2022/11/04 11:06:58;;;;;;;442.08;41.83;;;;;;;15.62;69.16;99826.25;5078004;28;20033;-69
2022/11/04 11:09:28;;;;;;;47.28;21.70;;;;;;;15.84;67.95;99825.19;5080333;28;20070;-69
2022/11/04 11:12:05;;;;;;;46.75;23.48;;;;;;;15.92;67.50;99816.22;5079519;28;20040;-69
2022/11/04 11:14:36;;;;;;;47.25;23.98;;;;;;;15.93;68.15;99816.03;5079070;28;20048;-69
2022/11/04 11:17:13;;;;;;;44.85;23.05;;;;;;;16.16;67.16;99805.06;5080636;28;20032;-69
2022/11/04 11:20:04;;;;;;;45.03;22.40;;;;;;;16.16;67.24;99802.41;5077797;28;20086;-69
2022/11/04 11:22:41;;;;;;;47.60;22.73;;;;;;;16.28;67.13;99798.16;5078100;28;20032;-69
2022/11/04 11:25:25;;;;;;;48.22;22.45;;;;;;;16.28;66.29;99794.66;5077537;28;20198;-69
2022/11/04 11:28:01;;;;;;;52.63;22.58;;;;;;;16.28;66.26;99792.00;5060088;28;20032;-69
2022/11/04 11:30:30;;;;;;;42.70;20.27;;;;;;;16.30;66.59;99797.97;5078015;28;20044;-69
2022/11/04 11:33:27;;;;;;;44.88;23.50;;;;;;;16.44;65.36;99788.16;5079248;28;20093;-69
2022/11/04 11:35:59;;;;;;;45.75;22.45;;;;;;;16.39;65.64;99786.09;5076197;28;20040;-69
2022/11/04 11:38:30;;;;;;;49.85;23.73;;;;;;;16.50;64.86;99777.50;5079005;28;20033;-69
2022/11/04 11:41:07;;;;;;;47.70;23.38;;;;;;;16.44;64.62;99769.44;5079889;28;20028;-69
2022/11/04 11:43:35;;;;;;;41.42;20.77;;;;;;;16.21;65.10;99769.75;5078967;28;20033;-69
2022/11/04 11:46:02;;;;;;;45.33;23.13;;;;;;;16.18;65.32;99760.28;5078343;28;20377;-68
2022/11/04 11:48:28;;;;;;;50.13;24.35;;;;;;;16.30;65.27;99757.88;5060570;28;20315;-69
2022/11/04 11:50:59;;;;;;;52.17;23.83;;;;;;;16.50;64.16;99745.41;5079336;28;20040;-69
2022/11/04 11:53:28;;;;;;;47.50;22.80;;;;;;;16.48;64.51;99757.34;5077315;28;20342;-70
2022/11/04 11:56:05;;;;;;;55.13;23.65;;;;;;;16.64;63.28;99754.31;5080157;28;20048;-69
2022/11/04 11:58:43;;;;;;;45.25;21.23;;;;;;;16.77;63.19;99753.59;5079771;28;20242;-68
2022/11/04 12:01:25;;;;;;;48.08;20.33;;;;;;;16.53;63.85;99731.66;5080443;28;20024;-69
2022/11/04 12:03:51;;;;;;;43.08;21.63;;;;;;;16.67;63.63;99737.09;5081006;28;20037;-69
2022/11/04 12:06:48;;;;;;;46.78;21.73;;;;;;;16.80;63.86;99737.97;5083721;28;20078;-69
2022/11/04 12:09:21;;;;;;;41.58;20.15;;;;;;;16.80;62.95;99731.78;5083544;28;20456;-69